Sun Princess — ZCBU6 — position and weather

sailwx.info

Track history (hours):
 
Tides and Currents Weather Stations Pressure Air Temp Water Temp Dewpoint Dewpoint Depression Visibility Wind Speed Wind Dir Waves Ship Positions

Sun Princess

Operator: Princess Cruises

Last reported at 2017-May-22 17:00 UTC. Time now 2017-May-23 08:50 UTC.
Position S 24°36' E 154°18'.

Length 261.3 m; beam 32.3 m; draft 8.1 m.

Type: Passenger vessel. MMSI: 310438000.

Wind from 120 at 19 knots

Barometer 1017.7 mb
Air temperature 23.0 ° C
Visibility: greater than 10.8 NM
Dewpoint 20.7 ° C
Water temperature 24.8 ° C

Date/timePositionNaut miles runAvg speedWind from/ knotsBaromVisibWave heightAir tempDewpointWater temp
2017-May-22 17:00S 24°36' E 154°18'18717.8 120 / 191017.710.8 23.020.724.8
2017-May-22 06:29S 27°43' E 154°02'23117.2
2017-May-21 17:00S 31°30' E 153°12'6720.0 170 / 141020.110.8 20.518.922.9
2017-May-21 13:38S 32°34' E 152°48'217.6
2017-May-21 13:30S 32°36' E 152°47'917.5
2017-May-21 13:00S 32°43' E 152°40'917.5
2017-May-21 12:30S 32°49' E 152°33'917.5
2017-May-21 12:00S 32°56' E 152°26'917.4
2017-May-21 11:30S 33°02' E 152°19'37 1.9
2017-May-20 16:43S 33°30' E 151°50'315.4
2017-May-20 16:30S 33°27' E 151°53'715.1
2017-May-20 16:00S 33°22' E 152°00'815.4
2017-May-20 15:31S 33°17' E 152°07'815.5
2017-May-20 15:01S 33°12' E 152°14'815.4
2017-May-20 14:30S 33°07' E 152°21'1615.5
2017-May-20 13:30S 32°57' E 152°35'815.5
2017-May-20 13:00S 32°52' E 152°42'815.2
2017-May-20 12:31S 32°47' E 152°49'714.9
2017-May-20 12:00S 32°42' E 152°56'714.5
2017-May-20 11:30S 32°37' E 153°02'714.1
2017-May-20 11:00S 32°32' E 153°08'92018.1
2017-May-18 08:12S 22°27' E 166°09'317.8
2017-May-18 08:00S 22°25' E 166°11'715.0
2017-May-18 07:30S 22°20' E 166°17'713.6
2017-May-18 07:00S 22°15' E 166°23'3 6.9
2017-May-18 06:30S 22°16' E 166°26'0 0.1
2017-May-18 06:00S 22°16' E 166°26'0 0.0
2017-May-18 05:30S 22°16' E 166°26'0 0.0
2017-May-18 05:00S 22°16' E 166°26'0 0.0
2017-May-18 04:30S 22°16' E 166°26'0 0.0
2017-May-18 04:00S 22°16' E 166°26'0 0.0
2017-May-18 03:30S 22°16' E 166°26'0 0.0
2017-May-18 03:00S 22°16' E 166°26'0 0.0
2017-May-18 02:30S 22°16' E 166°26'0 0.0
2017-May-18 02:00S 22°16' E 166°26'0 0.0
2017-May-18 01:30S 22°16' E 166°26'0 0.0
2017-May-18 01:00S 22°16' E 166°26'0 0.0
2017-May-18 00:27S 22°16' E 166°26'0 0.0
2017-May-18 00:00S 22°16' E 166°26'0 0.0
2017-May-17 23:30S 22°16' E 166°26'0 0.0
2017-May-17 23:00S 22°16' E 166°26'0 0.0
2017-May-17 22:30S 22°16' E 166°26'0 0.0
2017-May-17 22:00S 22°16' E 166°26'0 0.0
2017-May-17 21:30S 22°16' E 166°26'0 0.0
2017-May-17 21:00S 22°16' E 166°26'0 0.0
2017-May-17 20:30S 22°16' E 166°26'2 4.7
2017-May-17 20:00S 22°15' E 166°24'611.6
2017-May-17 19:31S 22°20' E 166°27'917.8
2017-May-17 19:01S 22°23' E 166°36'917.9
2017-May-17 18:31S 22°24' E 166°46'  
2017-May-13 15:00S 18°36' E 177°48'   160 / 171012.810.8 26.026.028.5
Track history (hours):
 
Tides and Currents Weather Stations Pressure Air Temp Water Temp Dewpoint Dewpoint Depression Visibility Wind Speed Wind Dir Waves Ship Positions

Sun Princess

Operator: Princess Cruises

Last reported at 2017-May-22 17:00 UTC. Time now 2017-May-23 08:50 UTC.
Position S 24°36' E 154°18'.

Length 261.3 m; beam 32.3 m; draft 8.1 m.

Type: Passenger vessel. MMSI: 310438000.

Wind from 120 at 19 knots

Barometer 1017.7 mb
Air temperature 23.0 ° C
Visibility: greater than 10.8 NM
Dewpoint 20.7 ° C
Water temperature 24.8 ° C

Date/timePositionNaut miles runAvg speedWind from/ knotsBaromVisibWave heightAir tempDewpointWater temp
2017-May-22 17:00S 24°36' E 154°18'18717.8 120 / 191017.710.8 23.020.724.8
2017-May-22 06:29S 27°43' E 154°02'23117.2
2017-May-21 17:00S 31°30' E 153°12'6720.0 170 / 141020.110.8 20.518.922.9
2017-May-21 13:38S 32°34' E 152°48'217.6
2017-May-21 13:30S 32°36' E 152°47'917.5
2017-May-21 13:00S 32°43' E 152°40'917.5
2017-May-21 12:30S 32°49' E 152°33'917.5
2017-May-21 12:00S 32°56' E 152°26'917.4
2017-May-21 11:30S 33°02' E 152°19'37 1.9
2017-May-20 16:43S 33°30' E 151°50'315.4
2017-May-20 16:30S 33°27' E 151°53'715.1
2017-May-20 16:00S 33°22' E 152°00'815.4
2017-May-20 15:31S 33°17' E 152°07'815.5
2017-May-20 15:01S 33°12' E 152°14'815.4
2017-May-20 14:30S 33°07' E 152°21'1615.5
2017-May-20 13:30S 32°57' E 152°35'815.5
2017-May-20 13:00S 32°52' E 152°42'815.2
2017-May-20 12:31S 32°47' E 152°49'714.9
2017-May-20 12:00S 32°42' E 152°56'714.5
2017-May-20 11:30S 32°37' E 153°02'714.1
2017-May-20 11:00S 32°32' E 153°08'92018.1
2017-May-18 08:12S 22°27' E 166°09'317.8
2017-May-18 08:00S 22°25' E 166°11'715.0
2017-May-18 07:30S 22°20' E 166°17'713.6
2017-May-18 07:00S 22°15' E 166°23'3 6.9
2017-May-18 06:30S 22°16' E 166°26'0 0.1
2017-May-18 06:00S 22°16' E 166°26'0 0.0
2017-May-18 05:30S 22°16' E 166°26'0 0.0
2017-May-18 05:00S 22°16' E 166°26'0 0.0
2017-May-18 04:30S 22°16' E 166°26'0 0.0
2017-May-18 04:00S 22°16' E 166°26'0 0.0
2017-May-18 03:30S 22°16' E 166°26'0 0.0
2017-May-18 03:00S 22°16' E 166°26'0 0.0
2017-May-18 02:30S 22°16' E 166°26'0 0.0
2017-May-18 02:00S 22°16' E 166°26'0 0.0
2017-May-18 01:30S 22°16' E 166°26'0 0.0
2017-May-18 01:00S 22°16' E 166°26'0 0.0
2017-May-18 00:27S 22°16' E 166°26'0 0.0
2017-May-18 00:00S 22°16' E 166°26'0 0.0
2017-May-17 23:30S 22°16' E 166°26'0 0.0
2017-May-17 23:00S 22°16' E 166°26'0 0.0
2017-May-17 22:30S 22°16' E 166°26'0 0.0
2017-May-17 22:00S 22°16' E 166°26'0 0.0
2017-May-17 21:30S 22°16' E 166°26'0 0.0
2017-May-17 21:00S 22°16' E 166°26'0 0.0
2017-May-17 20:30S 22°16' E 166°26'2 4.7
2017-May-17 20:00S 22°15' E 166°24'611.6
2017-May-17 19:31S 22°20' E 166°27'917.8
2017-May-17 19:01S 22°23' E 166°36'917.9
2017-May-17 18:31S 22°24' E 166°46'  
2017-May-13 15:00S 18°36' E 177°48'   160 / 171012.810.8 26.026.028.5

Dump ship's entire track history